Time;durP1;ratioP1;P1;durP2;ratioP2;P2;SDS_P1;SDS_P2;PMS_P1;PMS_P2;Temp;Humidity;BMP_temperature;BMP_pressure;BME280_temperature;BME280_humidity;BME280_pressure;Samples;Min_cycle;Max_cycle;Signal;HPM_P1;HPM_P2
2023/01/09 00:00:24;;;;;;;1.83;1.65;;;7.30;99.90;;;;;;5091382;28;20064;-79
2023/01/09 00:02:49;;;;;;;2.75;1.63;;;7.40;99.90;;;;;;5088402;28;20037;-79
2023/01/09 00:05:16;;;;;;;1.70;1.60;;;7.40;99.90;;;;;;5087741;28;20096;-79
2023/01/09 00:07:42;;;;;;;3.08;1.92;;;7.40;99.90;;;;;;5086013;28;20071;-79
2023/01/09 00:10:09;;;;;;;4.03;1.95;;;7.50;99.90;;;;;;5083194;28;20452;-79
2023/01/09 00:12:35;;;;;;;2.50;1.27;;;7.50;99.90;;;;;;5083180;28;20040;-79
2023/01/09 00:15:02;;;;;;;4.95;1.85;;;7.50;99.90;;;;;;5046408;28;20048;-78
2023/01/09 00:17:28;;;;;;;2.67;1.90;;;7.50;99.90;;;;;;5081187;28;20127;-78
2023/01/09 00:19:53;;;;;;;2.10;1.75;;;7.60;99.90;;;;;;5081732;28;20064;-79
2023/01/09 00:22:19;;;;;;;2.83;1.77;;;7.70;99.90;;;;;;5079411;28;20080;-79
2023/01/09 00:24:45;;;;;;;3.15;1.40;;;7.70;99.90;;;;;;5076646;28;20443;-79
2023/01/09 00:27:13;;;;;;;3.17;1.45;;;7.70;99.90;;;;;;5077071;28;20055;-79
2023/01/09 00:29:40;;;;;;;3.25;2.03;;;7.80;99.90;;;;;;5042394;28;20040;-79
2023/01/09 00:32:09;;;;;;;7.07;2.13;;;7.90;99.90;;;;;;5077148;28;20114;-79
2023/01/09 00:34:36;;;;;;;5.85;1.73;;;7.90;99.90;;;;;;5076637;28;20036;-79
2023/01/09 00:37:02;;;;;;;2.60;1.85;;;8.00;99.90;;;;;;5076670;28;20041;-79
2023/01/09 00:39:28;;;;;;;2.33;2.00;;;8.00;99.90;;;;;;5058942;28;20047;-79
2023/01/09 00:41:55;;;;;;;4.70;1.92;;;8.00;99.90;;;;;;5077313;28;20041;-77
2023/01/09 00:44:32;;;;;;;0.90;0.90;;;8.00;99.90;;;;;;5076594;28;20477;-74
2023/01/09 00:47:04;;;;;;;0.65;0.65;;;7.80;99.90;;;;;;5059092;28;20051;-74
2023/01/09 00:49:34;;;;;;;0.50;0.50;;;7.70;99.90;;;;;;5076426;28;20044;-74
2023/01/09 00:52:01;;;;;;;1.15;0.80;;;7.60;99.90;;;;;;5076423;28;20055;-74
2023/01/09 00:54:28;;;;;;;0.45;0.40;;;7.50;99.90;;;;;;5076639;28;20433;-75
2023/01/09 00:56:55;;;;;;;0.43;0.43;;;7.30;99.90;;;;;;5042252;28;20084;-74
2023/01/09 00:59:21;;;;;;;0.45;0.45;;;7.30;99.90;;;;;;5076232;28;20036;-75
2023/01/09 01:01:47;;;;;;;0.40;0.40;;;7.20;99.90;;;;;;5058971;28;20044;-75
2023/01/09 01:09:41;;;;;;;4.10;0.68;;;7.20;99.90;;;;;;5076577;28;20041;-76
2023/01/09 01:12:06;;;;;;;0.55;0.40;;;7.10;99.90;;;;;;5076281;28;20040;-77
2023/01/09 01:14:37;;;;;;;1.52;0.70;;;7.20;99.90;;;;;;5076442;28;20040;-76
2023/01/09 01:17:03;;;;;;;2.20;0.68;;;7.20;99.90;;;;;;5075897;28;20040;-76
2023/01/09 01:19:29;;;;;;;2.08;1.48;;;7.20;99.90;;;;;;5076231;28;20040;-77
2023/01/09 01:21:56;;;;;;;2.78;1.30;;;7.20;99.90;;;;;;5075079;28;20044;-78
2023/01/09 01:24:22;;;;;;;1.38;0.80;;;7.20;99.90;;;;;;5076106;28;20032;-77
2023/01/09 01:26:48;;;;;;;1.85;1.40;;;7.20;99.90;;;;;;5058632;28;20043;-75
2023/01/09 01:29:13;;;;;;;1.77;1.67;;;7.20;99.90;;;;;;5077035;28;20040;-77
2023/01/09 01:31:39;;;;;;;2.28;1.38;;;7.20;99.90;;;;;;5076325;28;20556;-77
2023/01/09 01:34:05;;;;;;;3.08;1.65;;;7.20;99.90;;;;;;5076468;28;20052;-77
2023/01/09 01:36:31;;;;;;;4.65;1.73;;;7.30;99.90;;;;;;5075525;28;20040;-77
2023/01/09 01:38:57;;;;;;;2.38;1.90;;;7.20;99.90;;;;;;5075957;28;20045;-77
2023/01/09 01:41:28;;;;;;;3.03;2.35;;;7.30;99.90;;;;;;5075809;28;20113;-76
2023/01/09 01:44:00;;;;;;;2.08;1.88;;;7.30;99.90;;;;;;5076800;28;20041;-77
2023/01/09 01:46:27;;;;;;;1.95;1.67;;;7.30;99.90;;;;;;5075105;28;20390;-76
2023/01/09 01:49:07;;;;;;;3.75;2.22;;;7.30;99.90;;;;;;5075890;28;20119;-78
2023/01/09 01:51:38;;;;;;;2.47;1.38;;;7.30;99.90;;;;;;5075303;28;20040;-77
2023/01/09 01:54:10;;;;;;;2.50;1.77;;;7.30;99.90;;;;;;5075536;28;20045;-77
2023/01/09 01:56:43;;;;;;;1.80;1.20;;;7.30;99.90;;;;;;5075072;28;20044;-78
2023/01/09 01:59:22;;;;;;;2.95;1.20;;;7.30;99.90;;;;;;5074302;28;20044;-78
2023/01/09 02:01:55;;;;;;;1.13;1.13;;;7.30;99.90;;;;;;5077735;28;20435;-78
2023/01/09 02:04:20;;;;;;;;;;;7.40;99.90;;;;;;5075875;28;20105;-77
2023/01/09 02:06:49;;;;;;;2.50;1.27;;;7.30;99.90;;;;;;5075006;28;19920;-77
2023/01/09 02:09:18;;;;;;;2.35;1.15;;;7.30;99.90;;;;;;5075141;28;20079;-77
2023/01/09 02:11:53;;;;;;;1.95;1.33;;;7.30;99.90;;;;;;5057208;28;20076;-77
2023/01/09 02:14:24;;;;;;;1.92;1.10;;;7.40;99.90;;;;;;5075746;28;20123;-77
2023/01/09 02:17:17;;;;;;;2.15;1.25;;;7.40;99.90;;;;;;5074727;28;20040;-77
2023/01/09 02:20:12;;;;;;;1.13;1.00;;;7.40;99.90;;;;;;5074803;28;20461;-77
2023/01/09 02:22:58;;;;;;;3.08;1.10;;;7.30;99.90;;;;;;5043458;28;20309;-77
2023/01/09 02:25:43;;;;;;;1.55;1.02;;;7.30;99.90;;;;;;5057135;28;20047;-77
2023/01/09 02:28:33;;;;;;;1.40;1.30;;;7.30;99.90;;;;;;5074894;28;20037;-78
2023/01/09 02:31:29;;;;;;;3.05;1.45;;;7.30;99.90;;;;;;5074780;28;20040;-77
2023/01/09 02:34:16;;;;;;;1.77;1.42;;;7.20;99.90;;;;;;5075433;28;20056;-78
2023/01/09 02:37:14;;;;;;;4.85;1.60;;;7.20;99.90;;;;;;5074491;28;20123;-77
2023/01/09 02:40:04;;;;;;;2.45;1.30;;;7.10;99.90;;;;;;5074528;28;20036;-78
2023/01/09 02:42:32;;;;;;;1.88;1.40;;;7.10;99.90;;;;;;5074261;28;20055;-77
2023/01/09 02:44:58;;;;;;;4.68;1.83;;;7.10;99.90;;;;;;5074302;28;20048;-77
2023/01/09 02:47:23;;;;;;;2.28;1.52;;;7.00;99.90;;;;;;5074517;28;20102;-78
2023/01/09 02:49:58;;;;;;;3.15;1.35;;;6.90;99.90;;;;;;5074554;28;20040;-77
2023/01/09 02:52:39;;;;;;;1.92;1.70;;;7.00;99.90;;;;;;5057645;28;20044;-78
2023/01/09 02:55:24;;;;;;;2.63;1.40;;;6.90;99.90;;;;;;5074626;28;20043;-78
2023/01/09 02:57:55;;;;;;;3.65;1.50;;;6.90;99.90;;;;;;5074347;28;20045;-78
2023/01/09 03:00:51;;;;;;;2.55;1.73;;;6.90;99.90;;;;;;5039931;28;20040;-79
2023/01/09 03:03:35;;;;;;;3.47;1.33;;;6.80;99.90;;;;;;5075960;28;20381;-78
2023/01/09 03:06:18;;;;;;;1.98;1.52;;;6.70;99.90;;;;;;5074385;28;20093;-78
2023/01/09 03:08:50;;;;;;;2.22;1.67;;;6.70;99.90;;;;;;5056098;28;20040;-79
2023/01/09 03:11:16;;;;;;;2.78;1.50;;;6.70;99.90;;;;;;5074925;28;20424;-77
2023/01/09 03:13:51;;;;;;;1.58;1.40;;;6.70;99.90;;;;;;5074098;28;20067;-78
2023/01/09 03:16:22;;;;;;;3.25;2.00;;;6.60;99.90;;;;;;5074205;28;20052;-78
2023/01/09 03:18:50;;;;;;;4.22;2.03;;;6.60;99.90;;;;;;5073795;28;20079;-78
2023/01/09 03:21:16;;;;;;;4.68;1.98;;;6.60;99.90;;;;;;5057409;28;20048;-78
2023/01/09 03:23:49;;;;;;;5.43;2.85;;;6.50;99.90;;;;;;5074515;28;20036;-78
2023/01/09 03:26:16;;;;;;;3.55;1.95;;;6.50;99.90;;;;;;5074915;28;20535;-78
2023/01/09 03:28:42;;;;;;;5.95;2.78;;;6.50;99.90;;;;;;5056107;28;20115;-78
2023/01/09 03:31:08;;;;;;;3.55;2.67;;;6.50;99.90;;;;;;5073606;28;20106;-77
2023/01/09 03:33:34;;;;;;;2.00;1.80;;;6.40;99.90;;;;;;5039923;28;20056;-78
2023/01/09 03:36:00;;;;;;;1.92;1.65;;;6.40;99.90;;;;;;5074341;28;20048;-77
2023/01/09 03:38:25;;;;;;;2.20;2.00;;;6.40;99.90;;;;;;5073697;28;20041;-77
2023/01/09 03:40:51;;;;;;;2.65;1.98;;;6.30;99.90;;;;;;5073696;28;20401;-78
2023/01/09 03:43:16;;;;;;;2.78;2.28;;;6.30;99.90;;;;;;5075036;28;20131;-77
2023/01/09 03:45:42;;;;;;;3.97;2.47;;;6.30;99.90;;;;;;5075309;28;20481;-77
2023/01/09 03:48:08;;;;;;;4.32;2.33;;;6.20;99.90;;;;;;5077896;28;20070;-77
2023/01/09 03:50:34;;;;;;;3.78;3.00;;;6.20;99.90;;;;;;5077606;28;20043;-77
2023/01/09 03:52:59;;;;;;;4.25;1.98;;;6.20;99.90;;;;;;5078074;28;20143;-77
2023/01/09 03:55:25;;;;;;;3.85;2.63;;;6.20;99.90;;;;;;5061168;28;20048;-78
2023/01/09 03:57:51;;;;;;;3.08;2.33;;;6.10;99.90;;;;;;5077468;28;20079;-78
2023/01/09 04:00:19;;;;;;;2.22;2.03;;;6.10;99.90;;;;;;5043293;28;20086;-78
2023/01/09 04:02:44;;;;;;;3.15;2.47;;;6.10;99.90;;;;;;5077147;28;20353;-77
2023/01/09 04:05:10;;;;;;;5.25;2.92;;;6.00;99.90;;;;;;5077464;28;20063;-77
2023/01/09 04:07:36;;;;;;;2.95;2.55;;;5.90;99.90;;;;;;5077282;28;20086;-77
2023/01/09 04:10:01;;;;;;;7.13;2.95;;;5.90;99.90;;;;;;5054467;28;20040;-77
2023/01/09 04:12:27;;;;;;;3.13;2.30;;;5.90;99.90;;;;;;5088133;28;20051;-77
2023/01/09 04:14:53;;;;;;;4.40;2.63;;;5.90;99.90;;;;;;5077353;28;20465;-77
2023/01/09 04:17:18;;;;;;;4.47;2.88;;;5.90;99.90;;;;;;5077055;28;20040;-78
2023/01/09 04:19:44;;;;;;;4.50;2.83;;;5.90;99.90;;;;;;5076967;28;20473;-78
2023/01/09 04:22:10;;;;;;;4.07;3.33;;;5.90;99.90;;;;;;5076988;28;20063;-77
2023/01/09 04:24:35;;;;;;;3.35;2.90;;;5.80;99.90;;;;;;5059245;28;20051;-76
2023/01/09 04:27:01;;;;;;;6.18;2.85;;;5.80;99.90;;;;;;5059084;28;20041;-77
2023/01/09 04:29:27;;;;;;;5.25;3.25;;;5.80;99.90;;;;;;5077021;28;20123;-77
2023/01/09 04:31:53;;;;;;;3.42;3.15;;;5.80;99.90;;;;;;5076642;28;20079;-77
2023/01/09 04:34:24;;;;;;;5.93;3.13;;;5.80;99.90;;;;;;5076861;28;20119;-77
2023/01/09 04:36:53;;;;;;;5.72;3.08;;;5.80;99.90;;;;;;5076708;28;20045;-77
2023/01/09 04:39:19;;;;;;;7.93;3.35;;;5.70;99.90;;;;;;5076734;28;20121;-77
2023/01/09 04:41:48;;;;;;;9.55;3.85;;;5.70;99.90;;;;;;5076598;28;20123;-77
2023/01/09 04:44:25;;;;;;;5.53;3.72;;;5.70;99.90;;;;;;5076981;28;20102;-77
2023/01/09 04:46:50;;;;;;;7.68;4.10;;;5.70;99.90;;;;;;5077322;28;20346;-77
2023/01/09 04:49:16;;;;;;;4.72;4.00;;;5.70;99.90;;;;;;5058500;28;20044;-77
2023/01/09 04:51:42;;;;;;;5.80;4.03;;;5.70;99.90;;;;;;5077301;28;20048;-77
2023/01/09 04:54:07;;;;;;;5.47;3.33;;;5.80;99.90;;;;;;5076867;28;20197;-78
2023/01/09 04:56:33;;;;;;;7.35;3.80;;;5.70;99.90;;;;;;5076734;28;20047;-77
2023/01/09 04:58:59;;;;;;;6.50;3.50;;;5.70;99.90;;;;;;5076876;28;20036;-77
2023/01/09 05:01:24;;;;;;;4.75;3.80;;;5.70;99.90;;;;;;5061690;28;20040;-77
2023/01/09 05:03:50;;;;;;;4.57;4.13;;;5.70;99.90;;;;;;5077352;28;20051;-77
2023/01/09 05:06:16;;;;;;;4.97;3.38;;;5.60;99.90;;;;;;5089402;28;20080;-77
2023/01/09 05:08:41;;;;;;;6.78;4.70;;;5.70;99.90;;;;;;5077610;28;20036;-77
2023/01/09 05:11:07;;;;;;;6.55;4.07;;;5.70;99.90;;;;;;5076009;28;20084;-77
2023/01/09 05:13:33;;;;;;;6.28;4.40;;;5.70;99.90;;;;;;5057990;28;20040;-77
2023/01/09 05:15:58;;;;;;;6.90;4.95;;;5.80;99.90;;;;;;5076011;28;20040;-77
2023/01/09 05:18:24;;;;;;;7.22;4.72;;;5.80;99.90;;;;;;5075688;28;20127;-77
2023/01/09 05:20:51;;;;;;;7.78;5.82;;;5.80;99.90;;;;;;5075926;28;20036;-78
2023/01/09 05:23:17;;;;;;;8.93;5.72;;;5.80;99.90;;;;;;5075836;28;20152;-78
2023/01/09 05:25:42;;;;;;;8.00;5.97;;;5.90;99.90;;;;;;5076778;28;20075;-78
2023/01/09 05:28:08;;;;;;;8.20;6.35;;;5.90;99.90;;;;;;5058104;28;20051;-77
2023/01/09 05:30:34;;;;;;;10.15;6.80;;;6.00;99.90;;;;;;5075539;28;20365;-77
2023/01/09 05:32:59;;;;;;;8.57;7.00;;;6.00;99.90;;;;;;5057463;28;20048;-77
2023/01/09 05:35:25;;;;;;;9.40;6.70;;;6.00;99.90;;;;;;5058524;28;20041;-78
2023/01/09 05:37:51;;;;;;;9.27;7.70;;;6.00;99.90;;;;;;5075291;28;20086;-77
2023/01/09 05:40:17;;;;;;;13.38;7.95;;;6.10;99.90;;;;;;5075694;28;20036;-78
2023/01/09 05:42:43;;;;;;;18.23;9.10;;;6.10;99.90;;;;;;5090365;28;20033;-78
2023/01/09 05:45:09;;;;;;;12.07;8.20;;;6.10;99.90;;;;;;5086506;28;20046;-78
2023/01/09 05:47:35;;;;;;;14.40;8.65;;;6.20;99.90;;;;;;5075477;28;20095;-77
2023/01/09 05:50:01;;;;;;;14.18;8.70;;;6.20;99.90;;;;;;5075675;28;20040;-77
2023/01/09 05:52:27;;;;;;;11.93;9.35;;;6.20;99.90;;;;;;5076080;28;20465;-77
2023/01/09 05:54:53;;;;;;;11.82;8.93;;;6.20;99.90;;;;;;5058410;28;20143;-77
2023/01/09 05:57:18;;;;;;;11.45;8.77;;;6.20;99.90;;;;;;5075036;28;20040;-77
2023/01/09 05:59:44;;;;;;;12.75;9.82;;;6.20;99.90;;;;;;5075064;28;20106;-77
2023/01/09 06:02:10;;;;;;;13.30;9.95;;;6.30;99.90;;;;;;5075230;28;20047;-78
2023/01/09 06:04:36;;;;;;;12.20;9.20;;;6.30;99.90;;;;;;5075477;28;20048;-78
2023/01/09 06:07:02;;;;;;;16.10;11.73;;;6.20;99.90;;;;;;5075422;28;20051;-77
2023/01/09 06:09:27;;;;;;;13.68;10.75;;;6.30;99.90;;;;;;5074319;28;20044;-78
2023/01/09 06:11:53;;;;;;;15.15;10.30;;;6.30;99.90;;;;;;5074838;28;20040;-77
2023/01/09 06:14:20;;;;;;;16.35;11.00;;;6.30;99.90;;;;;;5074745;28;20438;-77
2023/01/09 06:16:45;;;;;;;13.20;10.30;;;6.30;99.90;;;;;;5074998;28;20101;-78
2023/01/09 06:19:11;;;;;;;13.75;10.20;;;6.30;99.90;;;;;;5074779;28;20036;-78
2023/01/09 06:21:37;;;;;;;17.17;10.40;;;6.30;99.90;;;;;;5074626;28;20048;-77
2023/01/09 06:24:03;;;;;;;17.63;10.20;;;6.30;99.90;;;;;;5074616;28;20072;-78
2023/01/09 06:26:28;;;;;;;16.30;10.25;;;6.30;99.90;;;;;;5075021;28;20047;-77
2023/01/09 06:28:55;;;;;;;14.82;10.82;;;6.40;99.90;;;;;;5076411;28;20111;-78
2023/01/09 06:31:24;;;;;;;17.08;10.70;;;6.40;99.90;;;;;;5079063;28;20507;-77
2023/01/09 06:33:50;;;;;;;14.23;9.68;;;6.40;99.90;;;;;;5078538;28;20044;-77
2023/01/09 06:36:16;;;;;;;14.82;10.68;;;6.40;99.90;;;;;;5059446;28;20093;-77
2023/01/09 06:38:42;;;;;;;14.15;10.43;;;6.40;99.90;;;;;;5075090;28;20048;-77
2023/01/09 06:41:08;;;;;;;16.40;10.60;;;6.30;99.90;;;;;;5074477;28;20140;-77
2023/01/09 06:43:34;;;;;;;16.02;10.85;;;6.40;99.90;;;;;;5074649;28;20512;-77
2023/01/09 06:46:00;;;;;;;15.43;9.02;;;6.40;99.90;;;;;;5074181;28;20381;-77
2023/01/09 06:48:26;;;;;;;17.67;11.02;;;6.40;99.90;;;;;;5074385;28;20041;-78
2023/01/09 06:50:52;;;;;;;17.77;10.38;;;6.40;99.90;;;;;;5074214;28;20056;-78
2023/01/09 06:53:18;;;;;;;16.15;10.35;;;6.40;99.90;;;;;;5056658;28;20131;-77
2023/01/09 06:55:45;;;;;;;13.70;9.57;;;6.40;99.90;;;;;;5074077;28;20500;-77
2023/01/09 06:58:11;;;;;;;12.57;9.93;;;6.40;99.90;;;;;;5074225;28;20043;-77
2023/01/09 07:00:37;;;;;;;16.48;9.60;;;6.40;99.90;;;;;;5074144;28;20052;-77
2023/01/09 07:03:04;;;;;;;12.80;9.18;;;6.40;99.90;;;;;;5074334;28;20044;-78
2023/01/09 07:05:31;;;;;;;12.18;9.35;;;6.40;99.90;;;;;;5073978;28;20075;-77
2023/01/09 07:07:57;;;;;;;14.35;8.88;;;6.40;99.90;;;;;;5074147;28;20040;-77
2023/01/09 07:10:23;;;;;;;10.23;8.65;;;6.40;99.90;;;;;;5073633;28;20036;-77
2023/01/09 07:12:48;;;;;;;12.20;8.27;;;6.40;99.90;;;;;;5074396;28;20047;-76
2023/01/09 07:15:14;;;;;;;11.00;8.55;;;6.40;99.90;;;;;;5073837;28;20040;-76
2023/01/09 07:17:40;;;;;;;10.15;7.63;;;6.40;99.90;;;;;;5074583;28;20036;-76
2023/01/09 07:20:06;;;;;;;10.48;7.47;;;6.30;99.90;;;;;;5074842;28;20441;-76
2023/01/09 07:22:32;;;;;;;9.02;6.80;;;6.30;99.90;;;;;;5059749;28;20040;-76
2023/01/09 07:24:58;;;;;;;11.25;7.70;;;6.30;99.90;;;;;;5077999;28;20132;-75
2023/01/09 07:27:23;;;;;;;8.68;7.05;;;6.20;99.90;;;;;;5078042;28;20048;-78
2023/01/09 07:29:50;;;;;;;15.57;7.60;;;6.20;99.90;;;;;;5078053;28;20107;-77
2023/01/09 07:32:16;;;;;;;11.48;7.20;;;6.20;99.90;;;;;;5077829;28;20532;-75
2023/01/09 07:34:42;;;;;;;11.10;7.57;;;6.20;99.90;;;;;;5078107;28;20385;-77
2023/01/09 07:37:08;;;;;;;10.80;6.47;;;6.10;99.90;;;;;;5060487;28;20044;-76
2023/01/09 07:39:33;;;;;;;8.57;6.82;;;6.10;99.90;;;;;;5059762;28;20048;-78
2023/01/09 07:41:59;;;;;;;11.80;6.88;;;6.10;99.90;;;;;;5077793;28;20048;-78
2023/01/09 07:44:25;;;;;;;10.25;6.78;;;6.00;99.90;;;;;;5077849;28;20044;-77
2023/01/09 07:46:50;;;;;;;10.18;5.85;;;6.00;99.90;;;;;;5078384;28;20118;-77
2023/01/09 07:49:16;;;;;;;9.73;6.35;;;6.00;99.90;;;;;;5077715;28;20465;-77
2023/01/09 07:51:43;;;;;;;7.80;6.25;;;6.00;99.90;;;;;;5078392;28;20457;-77
2023/01/09 07:54:10;;;;;;;7.22;5.40;;;6.10;99.90;;;;;;5077318;28;20465;-76
2023/01/09 07:56:35;;;;;;;7.22;5.80;;;6.00;99.90;;;;;;5078478;28;20094;-75
2023/01/09 07:59:01;;;;;;;8.95;6.82;;;6.00;99.90;;;;;;5059567;28;20048;-76
2023/01/09 08:01:27;;;;;;;6.78;6.07;;;6.00;99.90;;;;;;5077468;28;20044;-76
2023/01/09 08:03:52;;;;;;;7.72;6.00;;;5.90;99.90;;;;;;5059429;28;20044;-76
2023/01/09 08:06:18;;;;;;;9.30;5.05;;;5.90;99.90;;;;;;5077328;28;20063;-76
2023/01/09 08:08:44;;;;;;;8.18;5.43;;;5.90;99.90;;;;;;5077381;28;20491;-76
2023/01/09 08:11:09;;;;;;;6.45;5.18;;;5.90;99.90;;;;;;5077167;28;20040;-74
2023/01/09 08:13:35;;;;;;;7.30;5.70;;;6.00;99.90;;;;;;5079360;28;20048;-76
2023/01/09 08:16:01;;;;;;;8.43;5.18;;;6.00;99.90;;;;;;5058513;28;20052;-76
2023/01/09 08:18:27;;;;;;;9.20;5.60;;;6.10;99.90;;;;;;5045886;28;20062;-76
2023/01/09 08:20:52;;;;;;;9.10;5.00;;;6.10;99.90;;;;;;5077175;28;20035;-76
2023/01/09 08:23:18;;;;;;;10.45;5.25;;;6.10;99.90;;;;;;5077463;28;20512;-76
2023/01/09 08:25:44;;;;;;;8.20;5.65;;;6.20;99.90;;;;;;5076967;28;20119;-77
2023/01/09 08:28:09;;;;;;;7.10;5.30;;;6.20;99.90;;;;;;5076928;28;20090;-76
2023/01/09 08:30:35;;;;;;;7.03;4.90;;;6.30;99.90;;;;;;5077216;28;20036;-77
2023/01/09 08:33:01;;;;;;;8.00;4.75;;;6.30;99.90;;;;;;5058148;28;20395;-76
2023/01/09 08:35:27;;;;;;;7.20;4.50;;;6.30;99.90;;;;;;5085587;28;20079;-76
2023/01/09 08:37:53;;;;;;;4.57;4.20;;;6.40;99.90;;;;;;5079631;28;20048;-77
2023/01/09 08:40:18;;;;;;;9.98;4.75;;;6.40;99.90;;;;;;5076792;28;20044;-77
2023/01/09 08:48:14;;;;;;;5.90;4.32;;;6.40;99.90;;;;;;5076694;28;20127;-77
2023/01/09 08:50:40;;;;;;;5.80;4.40;;;6.50;99.90;;;;;;5076469;28;20465;-76
2023/01/09 08:53:06;;;;;;;6.35;3.85;;;6.60;99.90;;;;;;5077078;28;20066;-77
2023/01/09 08:55:31;;;;;;;6.35;3.67;;;6.60;99.90;;;;;;5059326;28;20047;-77
2023/01/09 08:57:57;;;;;;;5.88;3.80;;;6.70;99.90;;;;;;5058626;28;20051;-76
2023/01/09 09:00:24;;;;;;;5.47;4.10;;;6.70;99.90;;;;;;5058727;28;20043;-76
2023/01/09 09:02:55;;;;;;;4.38;3.40;;;6.70;99.90;;;;;;5076152;28;20540;-76
2023/01/09 09:05:22;;;;;;;6.55;4.30;;;6.70;99.90;;;;;;5077576;28;20048;-75
2023/01/09 09:07:49;;;;;;;4.43;3.05;;;6.70;99.90;;;;;;5077108;28;20055;-76
2023/01/09 09:10:19;;;;;;;4.45;3.25;;;6.80;99.90;;;;;;5076924;28;20047;-76
2023/01/09 09:12:47;;;;;;;6.05;3.75;;;6.80;99.90;;;;;;5076588;28;20094;-77
2023/01/09 09:15:22;;;;;;;6.15;3.28;;;6.80;99.90;;;;;;5076324;28;20121;-76
2023/01/09 09:17:53;;;;;;;9.27;4.28;;;6.80;99.90;;;;;;5076231;28;20044;-76
2023/01/09 09:20:20;;;;;;;5.40;3.35;;;6.90;99.90;;;;;;5076722;28;20040;-75
2023/01/09 09:22:46;;;;;;;7.72;3.25;;;6.90;99.90;;;;;;5075949;28;20080;-74
2023/01/09 09:25:13;;;;;;;6.00;3.63;;;6.90;99.90;;;;;;5075811;28;20504;-76
2023/01/09 09:27:39;;;;;;;5.53;4.03;;;7.00;99.90;;;;;;5076467;28;20373;-75
2023/01/09 09:30:05;;;;;;;3.90;3.10;;;7.00;99.90;;;;;;5075496;28;20041;-74
2023/01/09 09:32:31;;;;;;;7.57;3.75;;;7.00;99.90;;;;;;5076571;28;20063;-76
2023/01/09 09:34:57;;;;;;;5.43;4.20;;;7.00;99.90;;;;;;5058809;28;20048;-75
2023/01/09 09:37:23;;;;;;;4.72;2.50;;;7.10;99.90;;;;;;5057591;28;20092;-75
2023/01/09 09:39:49;;;;;;;4.15;3.22;;;7.10;99.90;;;;;;5075275;28;20040;-75
2023/01/09 09:45:40;;;;;;;6.13;3.10;;;7.30;99.90;;;;;;5075552;28;20059;-75
2023/01/09 09:48:12;;;;;;;4.43;3.42;;;7.30;99.90;;;;;;5057820;28;20044;-74
2023/01/09 09:50:53;;;;;;;2.83;2.60;;;7.20;99.90;;;;;;5075199;28;20102;-74
2023/01/09 09:53:27;;;;;;;8.10;2.97;;;7.20;99.90;;;;;;5075043;28;20531;-75
2023/01/09 09:55:56;;;;;;;6.45;2.83;;;7.30;99.90;;;;;;5075085;28;20465;-75
2023/01/09 09:58:59;;;;;;;8.35;4.53;;;7.30;99.90;;;;;;5075151;28;20477;-76
2023/01/09 10:01:36;;;;;;;3.42;2.55;;;7.40;99.90;;;;;;5035056;28;20036;-72
2023/01/09 10:04:06;;;;;;;4.30;2.80;;;7.40;99.90;;;;;;5076834;28;20070;-74
2023/01/09 10:06:43;;;;;;;5.63;3.25;;;7.40;99.90;;;;;;5074947;28;20087;-76
2023/01/09 10:09:34;;;;;;;2.97;2.55;;;7.40;99.90;;;;;;5080009;28;20040;-75
2023/01/09 10:12:07;;;;;;;9.10;3.47;;;7.40;99.90;;;;;;5075750;28;20048;-75
2023/01/09 10:14:32;;;;;;;3.15;2.78;;;7.40;99.90;;;;;;5075335;28;20037;-75
2023/01/09 10:17:21;;;;;;;3.15;2.60;;;7.40;99.90;;;;;;5074924;28;20439;-76
2023/01/09 10:19:54;;;;;;;5.20;2.92;;;7.50;99.90;;;;;;5075611;28;20361;-75
2023/01/09 10:22:58;;;;;;;4.80;3.40;;;7.60;99.90;;;;;;5074605;28;20488;-75
2023/01/09 10:25:46;;;;;;;8.35;5.05;;;7.60;99.90;;;;;;5074663;28;20123;-75
2023/01/09 10:28:33;;;;;;;3.33;2.53;;;7.60;99.90;;;;;;5074596;28;20469;-75
2023/01/09 10:31:11;;;;;;;5.38;2.50;;;7.60;99.90;;;;;;5074268;28;20116;-75
2023/01/09 10:34:04;;;;;;;3.78;2.53;;;7.60;99.90;;;;;;5074912;28;20064;-75
2023/01/09 10:36:47;;;;;;;3.95;2.50;;;7.60;99.90;;;;;;5059912;28;20048;-75
2023/01/09 10:39:21;;;;;;;5.25;3.00;;;7.60;99.90;;;;;;5056570;28;20080;-75
2023/01/09 10:41:59;;;;;;;3.10;2.25;;;7.70;99.90;;;;;;5073299;28;20036;-75
2023/01/09 10:44:24;;;;;;;3.13;2.75;;;7.70;99.90;;;;;;5074560;28;20044;-75
2023/01/09 10:46:54;;;;;;;5.15;3.25;;;7.70;99.90;;;;;;5074333;28;20377;-75
2023/01/09 10:49:22;;;;;;;3.92;1.98;;;7.70;99.90;;;;;;5074295;28;20032;-75
2023/01/09 10:51:55;;;;;;;3.65;2.38;;;7.70;99.90;;;;;;5074136;28;20075;-74
2023/01/09 10:54:22;;;;;;;2.33;1.90;;;7.70;99.90;;;;;;5074384;28;20043;-75
2023/01/09 10:57:11;;;;;;;3.65;2.72;;;7.80;99.90;;;;;;5072917;28;20052;-74
2023/01/09 10:59:39;;;;;;;4.55;2.60;;;7.80;99.90;;;;;;5056230;28;20051;-75
2023/01/09 11:02:15;;;;;;;5.95;2.88;;;7.80;99.90;;;;;;5075209;28;20496;-75
2023/01/09 11:04:42;;;;;;;4.70;2.67;;;7.70;99.90;;;;;;5075034;28;20044;-75
2023/01/09 11:07:30;;;;;;;3.95;2.47;;;7.80;99.90;;;;;;5084970;28;20040;-75
2023/01/09 11:10:07;;;;;;;4.85;2.65;;;7.80;99.90;;;;;;5083389;28;20032;-72
2023/01/09 11:12:34;;;;;;;3.95;3.03;;;7.80;99.90;;;;;;5074357;28;20072;-74
2023/01/09 11:15:15;;;;;;;9.82;2.85;;;7.80;99.90;;;;;;5075154;28;20040;-75
2023/01/09 11:17:42;;;;;;;5.05;3.13;;;7.80;99.90;;;;;;5074013;28;20047;-75
2023/01/09 11:20:22;;;;;;;5.72;2.72;;;7.90;99.90;;;;;;5073666;28;20055;-75
2023/01/09 11:22:50;;;;;;;3.90;3.38;;;7.90;99.90;;;;;;5074015;28;20049;-76
2023/01/09 11:25:18;;;;;;;6.35;2.90;;;8.00;99.90;;;;;;5072870;28;20059;-76
2023/01/09 11:28:02;;;;;;;4.00;2.67;;;8.00;99.90;;;;;;5056209;28;20047;-76
2023/01/09 11:30:59;;;;;;;3.63;2.70;;;8.10;99.90;;;;;;5074298;28;20052;-75
2023/01/09 11:33:37;;;;;;;3.40;2.83;;;8.20;99.90;;;;;;5074326;28;20048;-75
2023/01/09 11:36:04;;;;;;;6.80;2.78;;;8.20;99.90;;;;;;5056209;28;20071;-76
2023/01/09 11:38:52;;;;;;;5.47;3.10;;;8.20;99.90;;;;;;5073552;28;20037;-76
2023/01/09 11:41:33;;;;;;;3.92;2.60;;;8.10;99.90;;;;;;5078176;28;20048;-75
2023/01/09 11:44:01;;;;;;;3.42;3.13;;;8.10;99.90;;;;;;5074697;28;20040;-76
2023/01/09 11:46:42;;;;;;;4.55;3.40;;;8.10;99.90;;;;;;5073837;28;20054;-76
2023/01/09 11:49:14;;;;;;;3.80;3.30;;;8.10;99.90;;;;;;5073645;28;20036;-76
2023/01/09 11:51:40;;;;;;;3.75;2.75;;;8.10;99.90;;;;;;5074067;28;20457;-75
2023/01/09 11:54:15;;;;;;;5.68;2.55;;;8.10;99.90;;;;;;5074170;28;20040;-75
2023/01/09 11:56:41;;;;;;;3.95;2.92;;;8.20;99.90;;;;;;5073627;28;20505;-75
2023/01/09 11:59:12;;;;;;;4.95;3.40;;;8.20;99.90;;;;;;5073390;28;20075;-75
2023/01/09 12:01:57;;;;;;;3.40;3.10;;;8.20;99.90;;;;;;5080399;28;20058;-75
2023/01/09 12:04:34;;;;;;;4.10;3.05;;;8.30;99.90;;;;;;5056755;28;20090;-75
2023/01/09 12:07:22;;;;;;;4.18;3.30;;;8.30;99.90;;;;;;5074973;28;20472;-75
2023/01/09 12:09:59;;;;;;;4.28;3.63;;;8.30;99.90;;;;;;5077675;28;20051;-75
2023/01/09 12:12:51;;;;;;;4.68;3.75;;;8.40;99.90;;;;;;5059073;28;20079;-75
2023/01/09 12:15:23;;;;;;;4.70;3.95;;;8.40;99.90;;;;;;5059584;28;20087;-76
2023/01/09 12:18:03;;;;;;;4.05;3.47;;;8.50;99.90;;;;;;5077903;28;20060;-76
2023/01/09 12:21:08;;;;;;;5.63;3.35;;;8.50;99.90;;;;;;5077394;28;20036;-76
2023/01/09 12:23:54;;;;;;;5.13;2.90;;;8.50;99.90;;;;;;5077469;28;20132;-75
2023/01/09 12:26:30;;;;;;;4.10;3.20;;;8.50;99.90;;;;;;5059089;28;20043;-75
2023/01/09 12:28:59;;;;;;;3.50;3.20;;;8.50;99.90;;;;;;5077447;28;20042;-75
2023/01/09 12:31:53;;;;;;;5.18;3.13;;;8.60;99.90;;;;;;5077113;28;20138;-76
2023/01/09 12:34:28;;;;;;;;;;;8.50;99.90;;;;;;5077360;28;20056;-74
2023/01/09 12:36:58;;;;;;;4.80;3.28;;;8.70;99.90;;;;;;5077309;28;19924;-75
2023/01/09 12:39:49;;;;;;;5.18;3.40;;;8.50;99.90;;;;;;5076647;28;20044;-75
2023/01/09 12:42:26;;;;;;;6.10;3.70;;;8.40;99.90;;;;;;5076823;28;20047;-75
2023/01/09 12:44:56;;;;;;;4.82;4.20;;;8.40;99.90;;;;;;5058816;28;20044;-75
2023/01/09 12:47:44;;;;;;;6.10;4.00;;;8.40;99.90;;;;;;5043012;28;20040;-76
2023/01/09 12:50:24;;;;;;;5.95;3.65;;;8.30;99.90;;;;;;5063220;28;20044;-75
2023/01/09 12:53:05;;;;;;;5.63;3.63;;;8.40;99.90;;;;;;5058550;28;20059;-76
2023/01/09 12:55:39;;;;;;;3.63;3.30;;;8.40;99.90;;;;;;5077008;28;20040;-75
2023/01/09 12:58:32;;;;;;;7.50;4.35;;;8.40;99.90;;;;;;5058653;28;20040;-75
2023/01/09 13:01:03;;;;;;;5.05;4.45;;;8.40;99.90;;;;;;5076231;28;20048;-75
2023/01/09 13:03:40;;;;;;;5.95;4.13;;;8.40;99.90;;;;;;5058285;28;20106;-76
2023/01/09 13:06:13;;;;;;;4.18;3.78;;;8.40;99.90;;;;;;5075912;28;20055;-75
2023/01/09 13:08:43;;;;;;;4.57;4.13;;;8.50;99.90;;;;;;5076427;28;20052;-75
2023/01/09 13:11:26;;;;;;;4.88;3.50;;;8.50;99.90;;;;;;5076018;28;20041;-76
2023/01/09 13:13:58;;;;;;;;;;;8.50;99.90;;;;;;5059489;28;20045;-75
2023/01/09 13:16:29;;;;;;;4.03;3.63;;;8.40;99.90;;;;;;5075951;28;19916;-75
2023/01/09 13:19:13;;;;;;;8.27;4.60;;;8.40;99.90;;;;;;5074939;28;20465;-75
2023/01/09 13:21:39;;;;;;;4.65;3.55;;;8.40;99.90;;;;;;5076799;28;20123;-74
2023/01/09 13:24:21;;;;;;;6.45;4.85;;;8.50;99.90;;;;;;5041900;28;20123;-74
2023/01/09 13:27:09;;;;;;;9.65;4.63;;;8.50;99.90;;;;;;5076196;28;20067;-74